Time;durP1;ratioP1;P1;durP2;ratioP2;P2;SDS_P1;SDS_P2;PMS_P1;PMS_P2;Temp;Humidity;BMP_temperature;BMP_pressure;BME280_temperature;BME280_humidity;BME280_pressure;Samples;Min_cycle;Max_cycle;Signal;HPM_P1;HPM_P2
2022/04/24 00:00:46;;;;;;;5.73;3.87;;;;;;;9.40;70.32;100328.97;5025550;28;20286;-53
2022/04/24 00:03:14;;;;;;;4.40;4.00;;;;;;;9.36;68.49;100326.38;5010605;28;20243;-52
2022/04/24 00:05:40;;;;;;;6.00;4.30;;;;;;;9.27;68.49;100322.91;5022435;28;20243;-52
2022/04/24 00:08:08;;;;;;;5.37;3.97;;;;;;;9.30;68.99;100317.66;5025872;28;20240;-51
2022/04/24 00:10:37;;;;;;;5.87;5.20;;;;;;;9.23;68.54;100320.28;5025195;28;20241;-52
2022/04/24 00:13:03;;;;;;;6.53;3.93;;;;;;;9.37;70.20;100315.91;5025720;28;20263;-53
2022/04/24 00:15:30;;;;;;;5.50;4.63;;;;;;;9.32;69.69;100312.41;5025064;28;20282;-53
2022/04/24 00:17:56;;;;;;;7.77;5.17;;;;;;;9.17;69.09;100315.06;5025798;28;20232;-54
2022/04/24 00:20:24;;;;;;;5.23;4.30;;;;;;;9.12;69.46;100311.56;5024232;28;20541;-53
2022/04/24 00:22:50;;;;;;;4.93;4.20;;;;;;;9.04;69.74;100315.09;5025968;28;20613;-53
2022/04/24 00:25:17;;;;;;;6.10;4.37;;;;;;;8.97;70.07;100313.34;5025498;28;20557;-53
2022/04/24 00:27:43;;;;;;;5.63;4.60;;;;;;;9.14;71.42;100315.09;5026072;28;20244;-52
2022/04/24 00:30:10;;;;;;;5.70;4.10;;;;;;;9.12;71.00;100309.81;5024507;28;20252;-53
2022/04/24 00:32:37;;;;;;;6.67;5.30;;;;;;;9.13;70.85;100308.09;5024864;28;20240;-54
2022/04/24 00:35:04;;;;;;;5.30;4.23;;;;;;;9.00;70.29;100302.88;5025882;28;20318;-53
2022/04/24 00:37:31;;;;;;;6.03;4.40;;;;;;;8.87;71.12;100297.66;5025490;28;20228;-53
2022/04/24 00:39:58;;;;;;;9.63;4.60;;;;;;;8.78;71.64;100296.81;5024974;28;20286;-53
2022/04/24 00:42:24;;;;;;;5.67;4.57;;;;;;;8.73;71.90;100302.91;5023699;28;20259;-53
2022/04/24 00:44:50;;;;;;;6.93;4.40;;;;;;;8.74;73.36;100294.16;5022493;28;20377;-53
2022/04/24 00:47:18;;;;;;;4.83;3.80;;;;;;;8.77;74.36;100288.94;5008723;28;20233;-54
2022/04/24 00:49:45;;;;;;;6.37;3.90;;;;;;;8.72;74.20;100288.94;5013529;28;20611;-53
2022/04/24 00:52:12;;;;;;;6.07;4.00;;;;;;;8.70;74.08;100287.19;5021689;28;20280;-53
2022/04/24 00:54:40;;;;;;;5.13;3.83;;;;;;;8.73;74.62;100289.81;5021595;28;20237;-53
2022/04/24 00:57:07;;;;;;;5.30;4.87;;;;;;;8.70;74.74;100285.44;5025111;28;20252;-54
2022/04/24 00:59:33;;;;;;;6.80;4.50;;;;;;;8.74;75.72;100284.59;5023952;28;20283;-55
2022/04/24 01:02:00;;;;;;;6.00;3.97;;;;;;;8.92;77.70;100286.31;5025104;28;20232;-53
2022/04/24 01:04:26;;;;;;;4.93;4.07;;;;;;;8.75;74.57;100286.31;5025278;28;20236;-53
2022/04/24 01:06:52;;;;;;;5.10;4.60;;;;;;;8.71;74.76;100273.25;5025034;28;20264;-53
2022/04/24 01:09:20;;;;;;;5.77;4.10;;;;;;;8.62;75.06;100278.47;5024351;28;20260;-53
2022/04/24 01:11:49;;;;;;;6.60;4.70;;;;;;;8.57;75.70;100281.13;5025326;28;20240;-53
2022/04/24 01:14:16;;;;;;;4.40;4.00;;;;;;;8.75;78.35;100275.00;5024039;28;20236;-54
2022/04/24 01:16:43;;;;;;;6.57;3.93;;;;;;;8.63;76.03;100277.59;5023834;28;20477;-53
2022/04/24 01:19:10;;;;;;;6.47;4.07;;;;;;;8.57;77.05;100271.50;5018783;28;20299;-52
2022/04/24 01:21:39;;;;;;;5.07;4.20;;;;;;;8.46;77.16;100272.38;5004896;28;20248;-53
2022/04/24 01:24:06;;;;;;;5.87;4.43;;;;;;;8.43;76.92;100268.03;5015777;28;20244;-53
2022/04/24 01:26:35;;;;;;;5.17;4.73;;;;;;;8.14;78.36;100265.34;5024410;28;20243;-53
2022/04/24 01:29:01;;;;;;;7.00;5.07;;;;;;;8.11;80.11;100266.22;5023924;28;20326;-53
2022/04/24 01:31:28;;;;;;;5.17;3.60;;;;;;;8.51;79.96;100265.41;5024726;28;20283;-53
2022/04/24 01:33:54;;;;;;;5.27;4.13;;;;;;;8.45;78.37;100263.66;5028425;28;20286;-52
2022/04/24 01:36:21;;;;;;;7.63;5.30;;;;;;;8.20;78.18;100256.63;5027684;28;20837;-53
2022/04/24 01:38:48;;;;;;;5.27;4.17;;;;;;;8.32;80.17;100262.75;5024520;28;20260;-52
2022/04/24 01:41:15;;;;;;;8.57;5.10;;;;;;;8.39;77.46;100255.81;5028543;28;20228;-54
2022/04/24 01:43:42;;;;;;;8.17;5.10;;;;;;;8.46;80.83;100257.56;5028118;28;20237;-53
2022/04/24 01:46:09;;;;;;;4.83;4.33;;;;;;;8.29;79.03;100254.03;5028247;28;20232;-54
2022/04/24 01:48:36;;;;;;;6.73;4.43;;;;;;;8.21;79.42;100245.31;5027166;28;20294;-53
2022/04/24 01:51:03;;;;;;;4.67;3.97;;;;;;;8.18;79.39;100253.13;5028012;28;20264;-54
2022/04/24 01:53:29;;;;;;;4.97;3.97;;;;;;;8.05;79.41;100250.53;5017278;28;20656;-53
2022/04/24 01:55:58;;;;;;;7.00;4.60;;;;;;;7.85;80.62;100252.22;5009316;28;20299;-53
2022/04/24 01:58:24;;;;;;;4.90;4.37;;;;;;;7.97;81.49;100247.03;5026704;28;20696;-51
2022/04/24 02:00:51;;;;;;;5.63;4.97;;;;;;;8.08;80.09;100247.91;5028141;28;20244;-53
2022/04/24 02:03:18;;;;;;;5.87;3.97;;;;;;;8.19;81.22;100252.28;5027528;28;20225;-53
2022/04/24 02:05:44;;;;;;;5.47;4.23;;;;;;;8.18;80.52;100245.28;5028297;28;20259;-53
2022/04/24 02:08:10;;;;;;;7.20;4.83;;;;;;;8.44;81.89;100253.19;5027488;28;20236;-53
2022/04/24 02:10:37;;;;;;;6.00;4.40;;;;;;;8.26;79.72;100254.03;5026964;28;20236;-53
2022/04/24 02:13:05;;;;;;;7.50;4.37;;;;;;;8.14;81.13;100254.88;5027394;28;20724;-53
2022/04/24 02:15:31;;;;;;;5.63;4.60;;;;;;;8.17;80.87;100254.00;5027261;28;20302;-53
2022/04/24 02:17:58;;;;;;;7.20;4.53;;;;;;;8.01;80.46;100246.16;5027650;28;20306;-53
2022/04/24 02:20:24;;;;;;;5.17;4.40;;;;;;;8.18;81.61;100250.53;5026373;28;20236;-53
2022/04/24 02:22:51;;;;;;;8.57;4.90;;;;;;;7.99;81.23;100253.13;5027551;28;20264;-54
2022/04/24 02:25:18;;;;;;;5.77;4.67;;;;;;;7.95;80.67;100240.06;5027143;28;20238;-52
2022/04/24 02:27:44;;;;;;;7.47;4.97;;;;;;;7.83;81.49;100240.91;5027962;28;20232;-53
2022/04/24 02:30:12;;;;;;;5.87;4.93;;;;;;;7.95;83.23;100246.16;5022590;28;20302;-53
2022/04/24 02:32:39;;;;;;;6.40;5.07;;;;;;;8.19;81.81;100241.81;5027391;28;20314;-53
2022/04/24 02:35:06;;;;;;;4.60;4.17;;;;;;;8.18;80.78;100234.84;5026921;28;21319;-53
2022/04/24 02:37:32;;;;;;;7.60;4.93;;;;;;;8.07;80.40;100238.34;5010983;28;20283;-53
2022/04/24 02:39:59;;;;;;;6.87;4.50;;;;;;;8.07;82.97;100230.50;5025533;28;20236;-53
2022/04/24 02:42:25;;;;;;;4.63;4.07;;;;;;;8.04;81.57;100230.50;5027205;28;20714;-53
2022/04/24 02:44:52;;;;;;;5.67;4.90;;;;;;;8.06;79.67;100230.47;5026652;28;20309;-54
2022/04/24 02:47:19;;;;;;;7.40;4.37;;;;;;;8.04;80.22;100227.88;5023494;28;20768;-53
2022/04/24 02:49:46;;;;;;;6.00;4.77;;;;;;;8.17;82.60;100225.25;5026287;28;20264;-53
2022/04/24 02:52:12;;;;;;;5.70;4.17;;;;;;;8.11;81.27;100223.53;5026911;28;20809;-54
2022/04/24 02:54:40;;;;;;;7.40;4.83;;;;;;;7.98;80.61;100227.84;5026250;28;20259;-53
2022/04/24 02:57:07;;;;;;;7.90;4.93;;;;;;;7.80;80.47;100217.38;5027132;28;20309;-53
2022/04/24 02:59:33;;;;;;;5.50;4.00;;;;;;;7.68;81.22;100217.34;5026309;28;20343;-53
2022/04/24 03:02:00;;;;;;;6.03;4.70;;;;;;;7.65;82.77;100212.97;5027163;28;20252;-53
2022/04/24 03:04:28;;;;;;;8.83;5.07;;;;;;;7.54;81.95;100214.69;5026944;28;20309;-52
2022/04/24 03:06:54;;;;;;;9.27;4.97;;;;;;;7.48;82.85;100212.94;5026346;28;20259;-53
2022/04/24 03:09:20;;;;;;;6.27;5.13;;;;;;;7.54;83.41;100202.50;5025717;28;20236;-53
2022/04/24 03:11:47;;;;;;;7.27;4.90;;;;;;;7.62;81.78;100202.53;5026911;28;20245;-54
2022/04/24 03:14:13;;;;;;;7.40;5.87;;;;;;;7.77;83.16;100204.31;5026175;28;20290;-53
2022/04/24 03:16:39;;;;;;;8.03;4.73;;;;;;;7.62;82.30;100195.56;5024901;28;20244;-54
2022/04/24 03:19:06;;;;;;;6.37;5.20;;;;;;;7.56;82.24;100190.31;5024548;28;20771;-53
2022/04/24 03:21:34;;;;;;;5.27;4.53;;;;;;;7.64;83.14;100190.34;5010761;28;20706;-53
2022/04/24 03:24:00;;;;;;;6.40;5.17;;;;;;;7.55;83.12;100190.34;5013035;28;20714;-53
2022/04/24 03:26:26;;;;;;;6.00;5.03;;;;;;;7.61;84.08;100191.19;5026366;28;20256;-54
2022/04/24 03:28:53;;;;;;;8.17;5.53;;;;;;;7.61;84.11;100180.75;5025461;28;20283;-52
2022/04/24 03:31:19;;;;;;;7.03;5.13;;;;;;;7.44;83.73;100182.47;5026006;28;20263;-54
2022/04/24 03:33:45;;;;;;;6.87;5.33;;;;;;;7.30;83.12;100186.75;5024806;28;20232;-56
2022/04/24 03:36:12;;;;;;;9.60;5.33;;;;;;;7.41;86.09;100187.69;5026327;28;20286;-52
2022/04/24 03:38:40;;;;;;;5.23;4.73;;;;;;;7.75;85.19;100185.13;5025288;28;20232;-53
2022/04/24 03:41:06;;;;;;;10.33;5.17;;;;;;;7.64;84.20;100182.50;5025620;28;20302;-53
2022/04/24 03:43:32;;;;;;;6.37;5.00;;;;;;;7.58;83.39;100186.00;5025721;28;20267;-53
2022/04/24 03:45:59;;;;;;;5.03;4.50;;;;;;;7.77;84.36;100191.25;5025328;28;20302;-53
2022/04/24 03:48:25;;;;;;;5.60;5.00;;;;;;;7.61;84.27;100180.75;5024802;28;20236;-53
2022/04/24 03:50:51;;;;;;;7.50;5.13;;;;;;;7.45;82.91;100178.97;5025928;28;20228;-52
2022/04/24 03:53:18;;;;;;;6.27;5.13;;;;;;;7.31;84.31;100188.50;5025829;28;20266;-54
2022/04/24 03:55:46;;;;;;;9.07;4.93;;;;;;;7.18;85.73;100191.06;5025941;28;20714;-54
2022/04/24 03:58:12;;;;;;;6.87;5.27;;;;;;;7.33;85.23;100192.84;5025173;28;20259;-54
2022/04/24 04:00:39;;;;;;;7.60;5.90;;;;;;;7.22;85.73;100194.56;5025192;28;20228;-53
2022/04/24 04:03:05;;;;;;;5.87;5.07;;;;;;;7.34;83.36;100191.13;5026164;28;20718;-53
2022/04/24 04:05:33;;;;;;;8.43;5.23;;;;;;;7.35;86.49;100185.03;5026050;28;20243;-52
2022/04/24 04:07:59;;;;;;;12.33;6.33;;;;;;;7.06;86.23;100182.34;5025679;28;20228;-54
2022/04/24 04:10:26;;;;;;;8.47;5.53;;;;;;;7.14;85.68;100185.84;5024569;28;20278;-53
2022/04/24 04:12:53;;;;;;;11.10;6.20;;;;;;;7.32;87.94;100183.28;5025338;28;20236;-53
2022/04/24 04:15:20;;;;;;;5.73;4.73;;;;;;;7.52;86.42;100179.88;5025329;28;20632;-52
2022/04/24 04:17:46;;;;;;;9.00;5.67;;;;;;;7.32;84.54;100187.63;5025564;28;20343;-53
2022/04/24 04:20:13;;;;;;;6.43;5.33;;;;;;;7.40;85.84;100191.13;5024420;28;20697;-53
2022/04/24 04:22:51;;;;;;;6.97;5.23;;;;;;;7.58;87.91;100193.81;5025172;28;20608;-53
2022/04/24 04:25:18;;;;;;;6.20;5.60;;;;;;;7.31;84.97;100197.22;5024765;28;20247;-53
2022/04/24 04:27:44;;;;;;;9.87;5.43;;;;;;;7.55;86.92;100192.94;5025987;28;20310;-52
2022/04/24 04:30:12;;;;;;;5.53;4.53;;;;;;;7.75;84.41;100198.19;5023790;28;20263;-55
2022/04/24 04:32:39;;;;;;;5.63;4.90;;;;;;;7.52;84.94;100199.03;5025540;28;20237;-53
2022/04/24 04:35:09;;;;;;;7.97;5.67;;;;;;;7.41;85.88;100199.00;5025176;28;20272;-53
2022/04/24 04:37:36;;;;;;;5.93;4.90;;;;;;;7.35;85.90;100196.34;5024578;28;20251;-53
2022/04/24 04:40:02;;;;;;;6.80;5.97;;;;;;;7.39;84.44;100205.06;5023284;28;20252;-53
2022/04/24 04:42:29;;;;;;;5.60;5.10;;;;;;;7.54;85.69;100199.88;5025093;28;20225;-54
2022/04/24 04:44:57;;;;;;;7.40;5.23;;;;;;;7.54;85.79;100191.19;5024705;28;20319;-53
2022/04/24 04:47:25;;;;;;;8.60;5.60;;;;;;;7.33;85.09;100197.22;5024785;28;20491;-53
2022/04/24 04:49:51;;;;;;;7.53;5.43;;;;;;;7.39;86.30;100199.84;5024562;28;20244;-55
2022/04/24 04:52:18;;;;;;;4.57;4.10;;;;;;;7.81;86.52;100193.84;5025309;28;20807;-53
2022/04/24 04:54:44;;;;;;;9.77;6.47;;;;;;;7.48;84.98;100194.66;5025597;28;20587;-53
2022/04/24 04:57:10;;;;;;;9.80;5.87;;;;;;;7.25;86.32;100206.75;5024651;28;20761;-53
2022/04/24 04:59:36;;;;;;;12.57;5.70;;;;;;;7.52;88.80;100196.41;5024557;28;20276;-53
2022/04/24 05:02:03;;;;;;;6.53;5.40;;;;;;;7.41;85.82;100198.13;5024426;28;20279;-53
2022/04/24 05:04:31;;;;;;;7.80;5.93;;;;;;;7.43;86.81;100196.38;5024942;28;20316;-53
2022/04/24 05:06:57;;;;;;;11.07;6.47;;;;;;;7.26;85.98;100200.66;5025490;28;20264;-53
2022/04/24 05:09:24;;;;;;;11.37;7.07;;;;;;;7.46;86.50;100191.16;5027885;28;20228;-52
2022/04/24 05:11:50;;;;;;;6.97;5.90;;;;;;;7.59;86.64;100190.34;5027999;28;20251;-53
2022/04/24 05:14:17;;;;;;;10.37;6.40;;;;;;;7.47;87.29;100198.13;5027162;28;20278;-53
2022/04/24 05:16:43;;;;;;;6.40;5.80;;;;;;;7.69;86.73;100198.16;5027479;28;20282;-52
2022/04/24 05:19:09;;;;;;;7.40;6.13;;;;;;;7.41;86.61;100195.50;5014111;28;20264;-53
2022/04/24 05:21:37;;;;;;;8.43;5.97;;;;;;;7.50;85.70;100192.91;5028596;28;20252;-53
2022/04/24 05:24:04;;;;;;;6.17;5.57;;;;;;;7.94;85.42;100193.88;5021515;28;20252;-52
2022/04/24 05:26:31;;;;;;;8.20;5.70;;;;;;;8.02;84.94;100202.59;5028298;28;20263;-53
2022/04/24 05:28:58;;;;;;;7.00;5.40;;;;;;;7.76;84.01;100199.97;5027406;28;20240;-53
2022/04/24 05:31:24;;;;;;;9.23;7.13;;;;;;;7.62;84.70;100202.53;5027996;28;20732;-52
2022/04/24 05:33:50;;;;;;;9.47;6.47;;;;;;;7.58;84.84;100195.53;5027700;28;20264;-53
2022/04/24 05:36:16;;;;;;;10.37;6.67;;;;;;;7.72;86.25;100200.78;5028050;28;20291;-55
2022/04/24 05:38:44;;;;;;;8.00;5.97;;;;;;;7.90;85.23;100195.63;5027658;28;20746;-53
2022/04/24 05:41:10;;;;;;;7.17;5.07;;;;;;;8.15;83.90;100203.47;5012596;28;20610;-54
2022/04/24 05:43:37;;;;;;;8.60;6.17;;;;;;;8.73;82.00;100209.53;5015167;28;20657;-53
2022/04/24 05:46:03;;;;;;;8.83;6.83;;;;;;;8.43;80.84;100207.88;5028728;28;20264;-53
2022/04/24 05:48:29;;;;;;;6.00;5.50;;;;;;;8.48;80.96;100198.25;5027841;28;20792;-53
2022/04/24 05:50:56;;;;;;;10.07;6.47;;;;;;;8.32;81.23;100196.50;5028204;28;20244;-53
2022/04/24 05:53:22;;;;;;;6.70;5.53;;;;;;;8.44;80.59;100199.13;5028084;28;20760;-54
2022/04/24 05:55:50;;;;;;;6.40;5.27;;;;;;;8.49;82.58;100197.38;5027853;28;20240;-54
2022/04/24 05:58:16;;;;;;;7.00;5.90;;;;;;;8.63;80.43;100202.59;5028016;28;20521;-57
2022/04/24 06:00:43;;;;;;;10.43;6.60;;;;;;;8.63;81.11;100212.19;5028775;28;20279;-53
2022/04/24 06:03:09;;;;;;;6.43;5.53;;;;;;;8.70;80.91;100206.94;5028357;28;20302;-52
2022/04/24 06:05:36;;;;;;;16.57;6.10;;;;;;;8.65;79.72;100200.84;5027470;28;20236;-53
2022/04/24 06:08:02;;;;;;;9.33;6.20;;;;;;;8.93;79.13;100196.41;5027616;28;20225;-53
2022/04/24 06:10:29;;;;;;;7.33;6.17;;;;;;;8.92;79.89;100199.06;5027618;28;20244;-53
2022/04/24 06:12:57;;;;;;;8.30;6.10;;;;;;;9.10;78.72;100203.34;5028655;28;20256;-53
2022/04/24 06:15:25;;;;;;;7.80;5.80;;;;;;;9.23;78.47;100199.78;5027725;28;20533;-53
2022/04/24 06:17:52;;;;;;;6.93;5.53;;;;;;;8.97;78.42;100203.38;5026925;28;20259;-53
2022/04/24 06:20:20;;;;;;;8.37;6.03;;;;;;;9.11;77.61;100205.09;5023398;28;20236;-53
2022/04/24 06:22:47;;;;;;;9.87;5.87;;;;;;;9.07;77.27;100207.72;5010413;28;20299;-53
2022/04/24 06:25:18;;;;;;;8.63;5.90;;;;;;;9.26;77.60;100199.78;5027681;28;20247;-52
2022/04/24 06:27:44;;;;;;;5.90;5.17;;;;;;;9.43;75.82;100192.72;5027482;28;20236;-53
2022/04/24 06:30:13;;;;;;;7.57;6.77;;;;;;;9.16;76.15;100198.06;5026485;28;20324;-53
2022/04/24 06:32:41;;;;;;;7.87;6.17;;;;;;;9.11;77.53;100198.09;5018271;28;20268;-54
2022/04/24 06:35:09;;;;;;;10.83;5.97;;;;;;;9.12;77.07;100191.97;5007973;28;20237;-53
2022/04/24 06:37:36;;;;;;;9.60;7.07;;;;;;;9.19;76.49;100188.44;5022174;28;20307;-53
2022/04/24 06:40:02;;;;;;;8.53;5.57;;;;;;;9.39;76.70;100190.13;5026781;28;20233;-52
2022/04/24 06:42:29;;;;;;;5.90;5.23;;;;;;;9.47;76.80;100183.09;5027535;28;20232;-53
2022/04/24 06:44:56;;;;;;;8.43;6.27;;;;;;;9.40;76.31;100182.25;5027324;28;20244;-53
2022/04/24 06:47:24;;;;;;;8.57;5.93;;;;;;;9.46;76.43;100176.97;5027045;28;20232;-53
2022/04/24 06:49:50;;;;;;;9.00;7.73;;;;;;;9.19;76.82;100182.34;5026550;28;20246;-54
2022/04/24 06:52:16;;;;;;;7.60;6.83;;;;;;;9.33;76.78;100172.69;5027441;28;20232;-54
2022/04/24 06:54:44;;;;;;;9.30;6.10;;;;;;;9.49;75.94;100176.09;5027341;28;20652;-53
2022/04/24 06:57:10;;;;;;;8.67;5.90;;;;;;;9.59;77.26;100179.53;5026981;28;20736;-52
2022/04/24 06:59:36;;;;;;;8.83;6.43;;;;;;;9.55;76.19;100176.94;5026276;28;20255;-53
2022/04/24 07:02:03;;;;;;;6.20;5.60;;;;;;;9.64;75.49;100169.91;5027152;28;20370;-53
2022/04/24 07:04:31;;;;;;;7.33;6.07;;;;;;;9.77;74.49;100175.06;5026407;28;20229;-53
2022/04/24 07:06:57;;;;;;;7.80;6.27;;;;;;;9.88;74.18;100167.09;5026607;28;20268;-52
2022/04/24 07:09:23;;;;;;;10.43;6.17;;;;;;;10.09;74.42;100167.81;5026287;28;20232;-53
2022/04/24 07:11:50;;;;;;;6.87;6.23;;;;;;;10.13;73.58;100165.16;5027243;28;20437;-54
2022/04/24 07:14:16;;;;;;;6.37;5.73;;;;;;;10.18;72.23;100157.25;5025170;28;20233;-53
2022/04/24 07:16:42;;;;;;;7.63;6.83;;;;;;;10.29;70.92;100165.94;5026480;28;20699;-54
2022/04/24 07:19:09;;;;;;;7.50;6.73;;;;;;;10.33;71.57;100165.03;5025961;28;20316;-54
2022/04/24 07:21:36;;;;;;;6.93;5.87;;;;;;;10.43;70.67;100163.19;5027080;28;20260;-53
2022/04/24 07:24:03;;;;;;;7.70;6.90;;;;;;;10.42;70.76;100161.44;5026998;28;20672;-54
2022/04/24 07:26:30;;;;;;;7.47;6.77;;;;;;;10.56;70.91;100159.53;5026386;28;20581;-54
2022/04/24 07:28:56;;;;;;;8.03;6.03;;;;;;;10.72;70.08;100155.00;5023759;28;20686;-53
2022/04/24 07:31:23;;;;;;;8.50;6.30;;;;;;;10.79;69.15;100155.81;5025912;28;20778;-54
2022/04/24 07:33:49;;;;;;;8.23;5.80;;;;;;;10.88;69.57;100146.09;5024995;28;20236;-54
2022/04/24 07:36:16;;;;;;;5.93;5.33;;;;;;;11.07;68.01;100145.84;5026678;28;20629;-53
2022/04/24 07:38:44;;;;;;;6.37;5.70;;;;;;;11.28;67.61;100140.31;5025440;28;20229;-54
2022/04/24 07:41:10;;;;;;;9.37;5.57;;;;;;;11.38;67.33;100141.94;5024606;28;20286;-54
2022/04/24 07:43:37;;;;;;;9.27;6.10;;;;;;;11.44;65.71;100139.22;5025750;28;20750;-52
2022/04/24 07:46:03;;;;;;;8.73;6.23;;;;;;;11.45;65.61;100137.47;5026318;28;20841;-53
2022/04/24 07:48:29;;;;;;;7.70;7.00;;;;;;;11.33;64.73;100127.97;5025440;28;20298;-53
2022/04/24 07:50:56;;;;;;;6.43;5.00;;;;;;;11.44;65.04;100119.94;5026012;28;20240;-52
2022/04/24 07:53:22;;;;;;;6.50;5.83;;;;;;;11.65;64.42;100129.25;5025929;28;20237;-53
2022/04/24 07:55:51;;;;;;;6.10;5.33;;;;;;;11.87;63.43;100122.81;5026117;28;20240;-53
2022/04/24 07:58:17;;;;;;;5.85;5.25;;;;;;;11.97;63.17;100120.91;5024842;28;20240;-54
2022/04/24 08:00:44;;;;;;;7.80;5.75;;;;;;;12.15;62.28;100117.09;5026574;28;20729;-53
2022/04/24 08:03:11;;;;;;;6.43;5.07;;;;;;;12.19;59.87;100116.16;5025396;28;20229;-53
2022/04/24 08:05:40;;;;;;;7.00;5.32;;;;;;;12.33;59.42;100113.28;5025568;28;20279;-53
2022/04/24 08:08:08;;;;;;;8.30;5.20;;;;;;;12.54;60.09;100112.88;5025339;28;20239;-53
2022/04/24 08:10:36;;;;;;;5.80;5.22;;;;;;;12.64;60.25;100108.31;5024245;28;20328;-53
2022/04/24 08:13:05;;;;;;;6.35;4.75;;;;;;;12.80;59.64;100107.06;5021437;28;20274;-53
2022/04/24 08:15:31;;;;;;;6.65;4.97;;;;;;;12.62;59.14;100112.72;5021036;28;20240;-53
2022/04/24 08:17:58;;;;;;;5.72;4.90;;;;;;;12.60;59.76;100111.88;5025418;28;20244;-53
2022/04/24 08:20:24;;;;;;;7.28;5.20;;;;;;;12.53;60.35;100110.25;5024827;28;20354;-53
2022/04/24 08:22:52;;;;;;;6.00;5.40;;;;;;;12.70;60.05;100108.16;5024260;28;20671;-53
2022/04/24 08:25:20;;;;;;;6.78;5.40;;;;;;;12.92;59.23;100105.09;5023402;28;20260;-54
2022/04/24 08:27:47;;;;;;;7.97;4.72;;;;;;;13.09;58.18;100097.69;5025652;28;20721;-53
2022/04/24 08:30:16;;;;;;;5.22;4.72;;;;;;;13.21;57.24;100100.06;5024554;28;20231;-53
2022/04/24 08:32:43;;;;;;;5.82;4.82;;;;;;;13.39;56.25;100092.69;5021244;28;20268;-53
2022/04/24 08:35:11;;;;;;;5.50;5.00;;;;;;;13.60;54.06;100097.47;5020859;28;20294;-53
2022/04/24 08:37:38;;;;;;;5.88;4.68;;;;;;;13.75;52.26;100089.16;5025271;28;20267;-53
2022/04/24 08:40:06;;;;;;;4.82;4.43;;;;;;;13.89;53.39;100087.97;5024746;28;20240;-54
2022/04/24 08:42:33;;;;;;;4.80;4.40;;;;;;;14.17;52.88;100089.00;5023528;28;20228;-54
2022/04/24 08:45:00;;;;;;;5.35;4.85;;;;;;;14.37;49.38;100087.63;5025543;28;20241;-53
2022/04/24 08:47:28;;;;;;;6.63;4.63;;;;;;;14.29;48.84;100083.41;5024876;28;20264;-53
2022/04/24 08:49:56;;;;;;;5.30;4.57;;;;;;;14.44;49.13;100083.91;5023911;28;20228;-53
2022/04/24 08:52:24;;;;;;;4.65;4.15;;;;;;;14.53;48.88;100091.59;5005289;28;20233;-54
2022/04/24 08:54:51;;;;;;;5.35;4.78;;;;;;;14.44;49.00;100078.63;5012415;28;20244;-54
2022/04/24 08:57:18;;;;;;;5.53;4.88;;;;;;;14.65;49.12;100085.97;5025002;28;20706;-55
2022/04/24 08:59:45;;;;;;;5.75;4.68;;;;;;;14.63;49.06;100085.13;5025231;28;20235;-54
2022/04/24 09:02:12;;;;;;;4.68;4.28;;;;;;;14.47;48.49;100087.31;5025267;28;20270;-58
2022/04/24 09:04:40;;;;;;;6.35;4.85;;;;;;;14.82;48.17;100085.50;5024797;28;20228;-54
2022/04/24 09:07:08;;;;;;;4.82;4.35;;;;;;;15.06;48.17;100083.94;5023015;28;20254;-54
2022/04/24 09:09:40;;;;;;;4.25;3.83;;;;;;;15.33;47.47;100078.69;5022487;28;20239;-53
2022/04/24 09:12:07;;;;;;;6.95;4.60;;;;;;;15.22;47.82;100077.25;5025348;28;20248;-53
2022/04/24 09:14:34;;;;;;;6.72;5.00;;;;;;;15.09;47.28;100086.44;5023711;28;20232;-53
2022/04/24 09:17:05;;;;;;;6.53;4.45;;;;;;;15.44;46.90;100079.22;5016367;28;20790;-55
2022/04/24 09:19:32;;;;;;;8.90;4.78;;;;;;;15.40;47.20;100080.22;5014559;28;20263;-52
2022/04/24 09:22:05;;;;;;;5.00;4.50;;;;;;;15.24;47.42;100086.00;5024587;28;20615;-54
2022/04/24 09:24:39;;;;;;;9.15;5.03;;;;;;;15.50;46.33;100086.97;5013427;28;20603;-53
2022/04/24 09:27:06;;;;;;;4.93;4.32;;;;;;;15.69;45.78;100093.44;5004451;28;20240;-53
2022/04/24 09:29:32;;;;;;;5.97;4.85;;;;;;;15.82;46.11;100082.44;5004333;28;20268;-54
2022/04/24 09:31:59;;;;;;;6.90;4.47;;;;;;;16.05;45.36;100087.84;5010601;28;20260;-53
2022/04/24 09:34:29;;;;;;;5.22;4.72;;;;;;;16.13;45.50;100083.13;5025245;28;20240;-54
2022/04/24 09:37:00;;;;;;;6.00;4.40;;;;;;;16.34;44.74;100080.69;5024264;28;20241;-53
2022/04/24 09:39:28;;;;;;;6.10;5.32;;;;;;;16.10;44.76;100079.72;5023994;28;20239;-53
2022/04/24 09:42:02;;;;;;;5.40;4.85;;;;;;;16.21;45.34;100086.38;5024831;28;20260;-53
2022/04/24 09:44:36;;;;;;;5.25;4.75;;;;;;;15.88;44.15;100090.19;5024733;28;20278;-53
2022/04/24 09:47:02;;;;;;;7.35;4.93;;;;;;;16.17;44.43;100090.06;5024947;28;20654;-53
2022/04/24 09:49:30;;;;;;;7.40;5.82;;;;;;;15.89;45.44;100091.91;5024119;28;20260;-54
2022/04/24 09:51:57;;;;;;;4.65;4.32;;;;;;;15.92;45.22;100089.16;5024623;28;20259;-55
2022/04/24 09:54:23;;;;;;;6.32;5.32;;;;;;;16.08;45.46;100089.53;5027389;28;20241;-54
2022/04/24 09:56:52;;;;;;;6.38;4.70;;;;;;;16.03;44.62;100087.03;5027971;28;20240;-53
2022/04/24 09:59:20;;;;;;;4.80;4.20;;;;;;;15.69;45.88;100079.34;5027759;28;20236;-54
2022/04/24 10:01:47;;;;;;;5.40;4.90;;;;;;;15.73;45.83;100087.13;5028559;28;20350;-54
2022/04/24 10:04:13;;;;;;;5.80;4.47;;;;;;;15.87;46.11;100091.13;5030039;28;20228;-53
2022/04/24 10:06:42;;;;;;;4.97;4.57;;;;;;;16.16;44.51;100087.47;5023630;28;20249;-53
2022/04/24 10:09:10;;;;;;;5.80;4.38;;;;;;;16.13;45.31;100090.22;5014299;28;20258;-53
2022/04/24 10:11:36;;;;;;;5.22;4.53;;;;;;;16.45;44.62;100083.81;5028526;28;20232;-53
2022/04/24 10:14:07;;;;;;;6.70;5.07;;;;;;;15.99;44.43;100077.44;5028059;28;20237;-53
2022/04/24 10:16:49;;;;;;;5.55;4.68;;;;;;;16.06;44.92;100086.91;5025859;28;20672;-53
2022/04/24 10:19:24;;;;;;;9.40;4.60;;;;;;;15.98;45.99;100078.38;5023045;28;20666;-53
2022/04/24 10:21:59;;;;;;;5.30;4.80;;;;;;;16.09;45.36;100084.16;5016377;28;20552;-53
2022/04/24 10:24:26;;;;;;;4.85;4.43;;;;;;;16.29;45.15;100074.69;5028027;28;20243;-54
2022/04/24 10:26:54;;;;;;;6.22;4.80;;;;;;;16.12;44.43;100077.91;5028103;28;20253;-54
2022/04/24 10:29:22;;;;;;;5.80;5.20;;;;;;;16.26;44.15;100078.31;5027177;28;20224;-54
2022/04/24 10:31:50;;;;;;;5.20;4.70;;;;;;;16.52;42.97;100069.41;5027374;28;20240;-55
2022/04/24 10:34:18;;;;;;;5.57;3.97;;;;;;;16.46;43.80;100067.88;5027836;28;20310;-53
2022/04/24 10:36:55;;;;;;;4.82;4.32;;;;;;;16.57;45.25;100067.47;5023593;28;20263;-54
2022/04/24 10:39:23;;;;;;;5.90;4.80;;;;;;;16.66;45.02;100066.25;5026620;28;20217;-53
2022/04/24 10:41:57;;;;;;;5.72;5.05;;;;;;;16.82;43.68;100066.59;5027814;28;20290;-54
2022/04/24 10:44:25;;;;;;;6.63;4.45;;;;;;;16.81;43.97;100065.75;5027400;28;20345;-55
2022/04/24 10:46:54;;;;;;;3.85;3.55;;;;;;;16.65;43.78;100068.06;5026775;28;20249;-53
2022/04/24 10:49:20;;;;;;;5.90;4.53;;;;;;;16.44;44.72;100063.53;5026001;28;20698;-53
2022/04/24 10:51:58;;;;;;;5.28;4.78;;;;;;;15.74;45.97;100065.03;5027918;28;20256;-53
2022/04/24 10:54:31;;;;;;;4.72;4.32;;;;;;;15.72;46.74;100058.06;5026666;28;20645;-53
2022/04/24 10:56:57;;;;;;;6.90;4.43;;;;;;;15.60;47.05;100061.09;5026806;28;20245;-54
2022/04/24 10:59:26;;;;;;;4.70;4.30;;;;;;;15.61;47.68;100063.66;5025410;28;20225;-54
2022/04/24 11:01:54;;;;;;;4.75;4.30;;;;;;;15.74;47.65;100058.88;5025285;28;20340;-53
2022/04/24 11:04:22;;;;;;;7.32;5.15;;;;;;;15.55;47.95;100061.25;5025366;28;20221;-54
2022/04/24 11:06:55;;;;;;;6.22;4.20;;;;;;;15.63;47.78;100059.19;5025556;28;20784;-56
2022/04/24 11:09:22;;;;;;;5.80;4.53;;;;;;;15.54;48.22;100055.97;5024934;28;20232;-53
2022/04/24 11:11:49;;;;;;;5.57;4.47;;;;;;;15.45;48.46;100062.44;5025211;28;20294;-57
2022/04/24 11:14:19;;;;;;;4.88;3.95;;;;;;;15.44;49.35;100058.06;5023741;28;20236;-54
2022/04/24 11:16:50;;;;;;;4.38;3.67;;;;;;;15.19;49.76;100056.16;5024777;28;20251;-53
2022/04/24 11:19:23;;;;;;;8.15;5.05;;;;;;;15.14;49.14;100054.59;5024434;28;20290;-54
2022/04/24 11:21:54;;;;;;;4.43;4.03;;;;;;;15.10;49.44;100056.47;5006053;28;20727;-53
2022/04/24 11:24:21;;;;;;;5.40;4.90;;;;;;;15.23;48.84;100051.66;5005506;28;20753;-55
2022/04/24 11:26:48;;;;;;;5.25;4.72;;;;;;;15.50;48.18;100055.22;5006949;28;20269;-53
2022/04/24 11:29:14;;;;;;;5.13;4.63;;;;;;;15.25;48.31;100037.47;5025599;28;20232;-53